Wetterdaten: Woche 17.01.05 - 23.01.05 (KW3)
Datum Zeit Temperatur Luftfeuchte Luftdruck Niederschlag Windrichtung Taupunkt Windchill Wind
17.01.2005 00:00 -4,7 C 100 % 1027 hPa 0,0 l/m S-SW -4,7 C -5,2 C 6,4 km/h (2 Bft)
17.01.2005 01:00 -4,8 C 100 % 1026 hPa 0,0 l/m S -4,8 C -6,1 C 7,7 km/h (2 Bft)
17.01.2005 02:00 -4,6 C 100 % 1026 hPa 0,0 l/m S-SW -4,6 C -6,0 C 7,6 km/h (2 Bft)
17.01.2005 03:00 -4,5 C 100 % 1026 hPa 0,0 l/m S -4,5 C -4,6 C 4,7 km/h (1 Bft)
17.01.2005 04:00 -4,7 C 100 % 1026 hPa 0,0 l/m S-SW -4,7 C -5,0 C 4,4 km/h (1 Bft)
17.01.2005 05:00 -4,7 C 100 % 1025 hPa 0,0 l/m S-SW -4,7 C -5,3 C 5,3 km/h (1 Bft)
17.01.2005 06:00 -4,9 C 100 % 1025 hPa 0,0 l/m S-SW -4,9 C -5,0 C 3,5 km/h (1 Bft)
17.01.2005 07:00 -4,7 C 100 % 1025 hPa 0,0 l/m S-SW -4,7 C -5,0 C 4,6 km/h (1 Bft)
17.01.2005 08:00 -4,6 C 100 % 1025 hPa 0,0 l/m S -4,6 C -5,2 C 5,2 km/h (1 Bft)
17.01.2005 09:00 -4,3 C 100 % 1025 hPa 0,0 l/m S -4,3 C -4,6 C 5,3 km/h (1 Bft)
17.01.2005 10:00 -3,6 C 100 % 1025 hPa 0,0 l/m S -3,6 C -4,4 C 7,4 km/h (2 Bft)
17.01.2005 11:00 -3,0 C 100 % 1025 hPa 0,0 l/m S -3,0 C -4,2 C 7,8 km/h (2 Bft)
17.01.2005 12:00 -2,6 C 100 % 1024 hPa 0,0 l/m S -2,6 C -3,1 C 7,6 km/h (2 Bft)
17.01.2005 13:00 -2,1 C 100 % 1024 hPa 0,0 l/m S -2,2 C -2,6 C 6,4 km/h (2 Bft)
17.01.2005 14:00 -2,0 C 99 % 1023 hPa 0,0 l/m S -2,2 C -2,8 C 7,1 km/h (2 Bft)
17.01.2005 15:00 -1,5 C 97 % 1022 hPa 0,0 l/m S -2,0 C -1,9 C 6,3 km/h (2 Bft)
17.01.2005 16:00 -1,9 C 93 % 1022 hPa 0,0 l/m S -2,8 C -2,1 C 3,7 km/h (1 Bft)
17.01.2005 17:00 -2,7 C 94 % 1021 hPa 0,0 l/m S -3,5 C -2,7 C 1,6 km/h (1 Bft)
17.01.2005 18:00 -3,2 C 96 % 1021 hPa 0,0 l/m S-SO -3,8 C -3,2 C 3,7 km/h (1 Bft)
17.01.2005 19:00 -3,6 C 97 % 1021 hPa 0,0 l/m S -3,9 C -3,7 C 5,8 km/h (2 Bft)
17.01.2005 20:00 -4,0 C 100 % 1020 hPa 0,0 l/m S -4,1 C -5,0 C 7,9 km/h (2 Bft)
17.01.2005 21:00 -3,7 C 100 % 1020 hPa 0,0 l/m S -3,7 C -4,0 C 5,4 km/h (1 Bft)
17.01.2005 22:00 -3,7 C 100 % 1019 hPa 0,0 l/m S -3,7 C -3,8 C 5,3 km/h (1 Bft)
17.01.2005 23:00 -3,5 C 100 % 1018 hPa 0,0 l/m S -3,5 C -5,5 C 9,0 km/h (2 Bft)
18.01.2005 00:00 -3,7 C 100 % 1017 hPa 0,0 l/m S -3,7 C -3,9 C 3,8 km/h (1 Bft)
18.01.2005 01:00 -4,1 C 100 % 1016 hPa 0,0 l/m S -4,1 C -4,1 C 1,8 km/h (1 Bft)
18.01.2005 02:00 -4,1 C 100 % 1015 hPa 0,0 l/m N -4,1 C -4,1 C 0,4 km/h (0 Bft)
18.01.2005 03:00 -4,0 C 100 % 1014 hPa 0,0 l/m S-SO -4,0 C -4,0 C 5,9 km/h (2 Bft)
18.01.2005 04:00 -3,9 C 100 % 1013 hPa 0,0 l/m SO -3,9 C -4,0 C 6,5 km/h (2 Bft)
18.01.2005 05:00 -3,2 C 100 % 1012 hPa 0,0 l/m S -3,2 C -5,2 C 8,5 km/h (2 Bft)
18.01.2005 06:00 -2,5 C 94 % 1010 hPa 0,0 l/m S-SW -3,3 C -4,4 C 8,9 km/h (2 Bft)
18.01.2005 07:00 -2,4 C 93 % 1009 hPa 0,0 l/m S-SW -3,4 C -5,8 C 10,6 km/h (2 Bft)
18.01.2005 08:00 -2,2 C 93 % 1008 hPa 0,0 l/m S-SW -3,1 C -6,1 C 11,8 km/h (2 Bft)
18.01.2005 09:00 -1,7 C 93 % 1007 hPa 0,0 l/m S -2,7 C -5,3 C 10,8 km/h (2 Bft)
18.01.2005 10:00 -0,4 C 95 % 1006 hPa 0,0 l/m S-SW -1,0 C -3,2 C 10,3 km/h (2 Bft)
18.01.2005 11:00 1,5 C 91 % 1005 hPa 0,0 l/m S-SW 0,2 C -4,2 C 14,9 km/h (3 Bft)
18.01.2005 12:00 2,7 C 92 % 1004 hPa 0,0 l/m S-SW 1,5 C -5,5 C 21,4 km/h (4 Bft)
18.01.2005 13:00 2,6 C 92 % 1002 hPa 1,0 l/m S 1,4 C -2,8 C 15,1 km/h (3 Bft)
18.01.2005 14:00 2,4 C 95 % 1001 hPa 0,0 l/m W-SW 1,8 C -0,6 C 11,1 km/h (2 Bft)
18.01.2005 15:00 3,3 C 94 % 999 hPa 1,0 l/m W-SW 2,4 C -4,5 C 21,5 km/h (4 Bft)
18.01.2005 16:00 2,9 C 93 % 999 hPa 6,0 l/m W-SW 1,9 C -6,1 C 25,5 km/h (4 Bft)
18.01.2005 17:00 2,3 C 97 % 1000 hPa 4,0 l/m S-SO 2,0 C -6,1 C 22,8 km/h (4 Bft)
18.01.2005 18:00 1,7 C 99 % 1002 hPa 1,0 l/m S 1,6 C -5,1 C 17,7 km/h (3 Bft)
18.01.2005 19:00 1,5 C 99 % 1003 hPa 0,0 l/m S-SW 1,3 C -3,9 C 15,2 km/h (3 Bft)
18.01.2005 20:00 1,2 C 97 % 1005 hPa 0,0 l/m S 0,8 C -2,2 C 12,0 km/h (2 Bft)
18.01.2005 21:00 1,0 C 95 % 1006 hPa 0,0 l/m S-SW 0,2 C -4,3 C 15,0 km/h (3 Bft)
18.01.2005 22:00 0,7 C 80 % 1007 hPa 0,0 l/m SW -2,3 C -6,7 C 18,9 km/h (3 Bft)
18.01.2005 23:00 0,2 C 77 % 1008 hPa 0,0 l/m SW -3,3 C -6,9 C 17,7 km/h (3 Bft)
19.01.2005 00:00 -0,2 C 76 % 1008 hPa 0,0 l/m SW -3,9 C -4,3 C 12,0 km/h (2 Bft)
19.01.2005 01:00 -0,4 C 82 % 1008 hPa 0,0 l/m SW -3,1 C -6,4 C 15,0 km/h (3 Bft)
19.01.2005 02:00 -0,8 C 80 % 1008 hPa 0,0 l/m S-SO -3,9 C -6,2 C 14,4 km/h (3 Bft)
19.01.2005 03:00 -0,9 C 82 % 1008 hPa 0,0 l/m S-SO -3,6 C -4,0 C 7,7 km/h (2 Bft)
19.01.2005 04:00 -0,3 C 76 % 1009 hPa 0,0 l/m N -4,0 C -0,3 C 0,0 km/h (0 Bft)
19.01.2005 05:00 -0,2 C 77 % 1009 hPa 0,0 l/m N -3,7 C -0,2 C 0,0 km/h (0 Bft)
19.01.2005 06:00 -0,6 C 84 % 1010 hPa 0,0 l/m N -3,0 C -0,6 C 0,0 km/h (0 Bft)
19.01.2005 07:00 -0,6 C 87 % 1011 hPa 0,0 l/m N -2,5 C -0,6 C 0,0 km/h (0 Bft)
19.01.2005 08:00 -0,6 C 89 % 1011 hPa 0,0 l/m N -2,2 C -0,6 C 0,0 km/h (0 Bft)
19.01.2005 09:00 -0,4 C 90 % 1012 hPa 0,0 l/m N -1,8 C -0,4 C 0,0 km/h (0 Bft)
19.01.2005 10:00 0,1 C 93 % 1013 hPa 0,0 l/m N -0,9 C 0,1 C 0,0 km/h (0 Bft)
19.01.2005 11:00 0,9 C 87 % 1013 hPa 0,0 l/m SO -1,0 C -3,7 C 13,7 km/h (3 Bft)
19.01.2005 12:00 2,9 C 76 % 1013 hPa 0,0 l/m SO -1,0 C -1,1 C 13,4 km/h (3 Bft)
19.01.2005 13:00 3,3 C 67 % 1013 hPa 0,0 l/m S -2,1 C -2,1 C 15,5 km/h (3 Bft)
19.01.2005 14:00 2,3 C 75 % 1014 hPa 0,0 l/m S -1,8 C -2,4 C 13,7 km/h (3 Bft)
19.01.2005 15:00 1,7 C 77 % 1014 hPa 0,0 l/m S -1,9 C -2,2 C 12,5 km/h (3 Bft)
19.01.2005 16:00 1,2 C 82 % 1015 hPa 0,0 l/m S -1,6 C -2,2 C 11,2 km/h (2 Bft)
19.01.2005 17:00 0,8 C 88 % 1016 hPa 0,0 l/m S-SO -0,9 C -1,5 C 9,7 km/h (2 Bft)
19.01.2005 18:00 0,7 C 90 % 1016 hPa 0,0 l/m S -0,8 C -1,1 C 9,1 km/h (2 Bft)
19.01.2005 19:00 0,5 C 92 % 1017 hPa 0,0 l/m SO -0,6 C -0,8 C 8,0 km/h (2 Bft)
19.01.2005 20:00 0,6 C 92 % 1017 hPa 0,0 l/m S-SO -0,5 C -3,1 C 11,8 km/h (2 Bft)
19.01.2005 21:00 0,5 C 89 % 1017 hPa 0,0 l/m S -1,1 C -5,1 C 14,4 km/h (3 Bft)
19.01.2005 22:00 0,4 C 87 % 1018 hPa 0,0 l/m S-SO -1,5 C -5,9 C 15,6 km/h (3 Bft)
19.01.2005 23:00 0,7 C 85 % 1018 hPa 0,0 l/m S -1,6 C -6,3 C 16,9 km/h (3 Bft)
20.01.2005 00:00 0,9 C 85 % 1018 hPa 0,0 l/m S-SO -1,4 C -6,0 C 16,9 km/h (3 Bft)
20.01.2005 01:00 1,0 C 84 % 1017 hPa 0,0 l/m S-SO -1,4 C -6,3 C 18,7 km/h (3 Bft)
20.01.2005 02:00 1,0 C 84 % 1017 hPa 0,0 l/m S-SO -1,5 C -6,7 C 19,2 km/h (3 Bft)
20.01.2005 03:00 1,0 C 79 % 1016 hPa 0,0 l/m SO -2,1 C -5,7 C 16,9 km/h (3 Bft)
20.01.2005 04:00 1,1 C 74 % 1015 hPa 0,0 l/m S-SO -2,9 C -7,5 C 21,9 km/h (4 Bft)
20.01.2005 05:00 1,5 C 69 % 1014 hPa 0,0 l/m S-SO -3,5 C -7,8 C 22,8 km/h (4 Bft)
20.01.2005 06:00 1,8 C 70 % 1014 hPa 0,0 l/m S-SO -3,1 C -9,1 C 28,6 km/h (4 Bft)
20.01.2005 07:00 1,7 C 78 % 1014 hPa 0,0 l/m S-SO -1,6 C -7,9 C 25,0 km/h (4 Bft)
20.01.2005 08:00 1,9 C 81 % 1014 hPa 0,0 l/m S-SO -1,0 C -7,5 C 24,7 km/h (4 Bft)
20.01.2005 09:00 2,0 C 83 % 1014 hPa 0,0 l/m S-SO -0,6 C -8,5 C 28,1 km/h (4 Bft)
20.01.2005 10:00 2,2 C 85 % 1014 hPa 0,0 l/m S-SO -0,1 C -7,2 C 24,5 km/h (4 Bft)
20.01.2005 11:00 2,5 C 89 % 1014 hPa 0,0 l/m S-SO 0,9 C -6,6 C 23,7 km/h (4 Bft)
20.01.2005 12:00 3,1 C 87 % 1014 hPa 0,0 l/m S-SO 1,1 C -5,8 C 23,6 km/h (4 Bft)
20.01.2005 13:00 3,8 C 88 % 1014 hPa 0,0 l/m SO 2,1 C -5,4 C 26,1 km/h (4 Bft)
20.01.2005 14:00 4,1 C 90 % 1012 hPa 0,0 l/m S-SO 2,7 C -6,0 C 30,7 km/h (5 Bft)
20.01.2005 15:00 4,4 C 89 % 1012 hPa 0,0 l/m S 2,8 C -5,0 C 27,8 km/h (4 Bft)
20.01.2005 16:00 4,8 C 93 % 1011 hPa 0,0 l/m S 3,7 C -3,5 C 24,7 km/h (4 Bft)
20.01.2005 17:00 5,2 C 90 % 1011 hPa 0,0 l/m S 3,8 C -3,7 C 25,4 km/h (4 Bft)
20.01.2005 18:00 5,7 C 89 % 1010 hPa 0,0 l/m S-SO 4,1 C -2,4 C 24,6 km/h (4 Bft)
20.01.2005 19:00 6,2 C 91 % 1010 hPa 0,0 l/m S-SW 4,8 C -2,6 C 27,3 km/h (4 Bft)
20.01.2005 20:00 6,5 C 91 % 1009 hPa 0,0 l/m S-SO 5,1 C -2,3 C 28,4 km/h (4 Bft)
20.01.2005 21:00 6,7 C 91 % 1009 hPa 0,0 l/m S 5,2 C -3,2 C 33,9 km/h (5 Bft)
20.01.2005 22:00 7,1 C 86 % 1008 hPa 0,0 l/m S-SO 4,9 C -2,8 C 35,2 km/h (5 Bft)
20.01.2005 23:00 7,0 C 85 % 1007 hPa 0,0 l/m S-SO 4,6 C -3,2 C 38,7 km/h (5 Bft)
21.01.2005 00:00 6,5 C 90 % 1006 hPa 1,0 l/m S-SO 5,0 C -3,9 C 34,3 km/h (5 Bft)
21.01.2005 01:00 6,3 C 92 % 1006 hPa 0,0 l/m S-SO 5,2 C -3,9 C 36,1 km/h (5 Bft)
21.01.2005 02:00 6,4 C 93 % 1005 hPa 0,0 l/m S-SO 5,3 C -3,3 C 31,8 km/h (5 Bft)
21.01.2005 03:00 6,4 C 92 % 1005 hPa 0,0 l/m S-SO 5,2 C -2,8 C 30,6 km/h (5 Bft)
21.01.2005 04:00 6,2 C 90 % 1005 hPa 0,0 l/m S-SO 4,7 C -2,3 C 28,5 km/h (4 Bft)
21.01.2005 05:00 6,1 C 90 % 1005 hPa 0,0 l/m S-SO 4,5 C -2,7 C 27,5 km/h (4 Bft)
21.01.2005 06:00 6,0 C 91 % 1005 hPa 1,0 l/m S-SO 4,7 C -2,2 C 25,9 km/h (4 Bft)
21.01.2005 07:00 3,7 C 92 % 1006 hPa 6,0 l/m SW 2,5 C -4,7 C 23,8 km/h (4 Bft)
21.01.2005 08:00 2,5 C 97 % 1007 hPa 2,0 l/m S-SW 2,1 C -4,5 C 19,0 km/h (3 Bft)
21.01.2005 09:00 2,9 C 96 % 1008 hPa 0,0 l/m S-SW 2,2 C -3,5 C 19,5 km/h (3 Bft)
21.01.2005 10:00 3,7 C 75 % 1009 hPa 0,0 l/m S -0,3 C -4,6 C 23,9 km/h (4 Bft)
21.01.2005 11:00 4,5 C 61 % 1010 hPa 0,0 l/m S-SW -2,4 C -3,7 C 24,7 km/h (4 Bft)
21.01.2005 12:00 4,5 C 58 % 1010 hPa 0,0 l/m SW -3,1 C -2,4 C 19,7 km/h (3 Bft)
21.01.2005 13:00 4,4 C 54 % 1010 hPa 0,0 l/m S -4,2 C -3,7 C 24,3 km/h (4 Bft)
21.01.2005 14:00 4,3 C 54 % 1011 hPa 0,0 l/m S-SW -4,2 C -1,4 C 17,4 km/h (3 Bft)
21.01.2005 15:00 3,7 C 56 % 1011 hPa 0,0 l/m S -4,2 C -1,6 C 16,3 km/h (3 Bft)
21.01.2005 16:00 2,6 C 73 % 1012 hPa 0,0 l/m S-SO -1,9 C -1,8 C 14,7 km/h (3 Bft)
21.01.2005 17:00 2,1 C 74 % 1012 hPa 0,0 l/m S-SO -2,1 C -3,8 C 17,2 km/h (3 Bft)
21.01.2005 18:00 1,8 C 79 % 1012 hPa 0,0 l/m S-SO -1,5 C -2,9 C 13,8 km/h (3 Bft)
21.01.2005 19:00 1,8 C 79 % 1013 hPa 0,0 l/m S-SO -1,6 C -2,7 C 13,6 km/h (3 Bft)
21.01.2005 20:00 2,0 C 73 % 1013 hPa 0,0 l/m S-SO -2,4 C -2,2 C 13,4 km/h (3 Bft)
21.01.2005 21:00 2,2 C 64 % 1013 hPa 0,0 l/m S-SO -3,9 C -2,7 C 14,5 km/h (3 Bft)
21.01.2005 22:00 2,1 C 67 % 1013 hPa 0,0 l/m S-SO -3,5 C -2,5 C 13,7 km/h (3 Bft)
21.01.2005 23:00 1,6 C 75 % 1013 hPa 0,0 l/m S-SO -2,3 C -4,8 C 17,8 km/h (3 Bft)
22.01.2005 00:00 1,6 C 73 % 994 hPa 0,0 l/m S -2,8 C -3,9 C 15,8 km/h (3 Bft)
22.01.2005 01:00 1,3 C 76 % 1013 hPa 0,0 l/m S -2,5 C -3,5 C 13,7 km/h (3 Bft)
22.01.2005 02:00 0,7 C 83 % 1013 hPa 0,0 l/m O-SO -1,9 C -1,3 C 8,6 km/h (2 Bft)
22.01.2005 03:00 0,7 C 79 % 1013 hPa 0,0 l/m S -2,5 C -0,6 C 7,7 km/h (2 Bft)
22.01.2005 04:00 0,8 C 78 % 1013 hPa 0,0 l/m S -2,6 C -2,3 C 10,4 km/h (2 Bft)
22.01.2005 05:00 0,5 C 79 % 1013 hPa 0,0 l/m O-SO -2,7 C -0,5 C 6,1 km/h (2 Bft)
22.01.2005 06:00 0,1 C 84 % 1014 hPa 0,0 l/m S-SO -2,2 C -2,2 C 9,1 km/h (2 Bft)
22.01.2005 07:00 -0,1 C 85 % 1014 hPa 0,0 l/m S-SO -2,2 C -2,9 C 11,2 km/h (2 Bft)
22.01.2005 08:00 -0,3 C 86 % 1014 hPa 0,0 l/m S-SO -2,3 C -2,9 C 9,9 km/h (2 Bft)
22.01.2005 09:00 0,0 C 86 % 1015 hPa 0,0 l/m O-SO -2,1 C -1,6 C 8,5 km/h (2 Bft)
22.01.2005 10:00 1,0 C 79 % 1015 hPa 0,0 l/m O-SO -2,3 C -3,6 C 12,9 km/h (3 Bft)
22.01.2005 11:00 2,2 C 58 % 1016 hPa 0,0 l/m S -5,1 C -3,4 C 16,3 km/h (3 Bft)
22.01.2005 12:00 2,6 C 52 % 1016 hPa 0,0 l/m S -6,1 C -4,1 C 18,2 km/h (3 Bft)
22.01.2005 13:00 2,6 C 53 % 1016 hPa 0,0 l/m S-SO -6,1 C -4,0 C 19,0 km/h (3 Bft)
22.01.2005 14:00 2,6 C 52 % 1016 hPa 0,0 l/m S -6,1 C -4,1 C 19,0 km/h (3 Bft)
22.01.2005 15:00 2,4 C 54 % 1017 hPa 0,0 l/m S -5,9 C -2,0 C 13,6 km/h (3 Bft)
22.01.2005 16:00 2,0 C 56 % 1017 hPa 0,0 l/m S -5,7 C -3,2 C 15,7 km/h (3 Bft)
22.01.2005 17:00 1,2 C 64 % 1017 hPa 0,0 l/m W -4,8 C -0,3 C 6,3 km/h (2 Bft)
22.01.2005 18:00 0,3 C 68 % 1018 hPa 0,0 l/m N -4,8 C 0,3 C 0,0 km/h (0 Bft)
22.01.2005 19:00 0,4 C 69 % 1018 hPa 0,0 l/m W-SW -4,7 C -0,9 C 6,7 km/h (2 Bft)
22.01.2005 20:00 1,1 C 63 % 1018 hPa 0,0 l/m W -5,2 C -3,3 C 12,5 km/h (3 Bft)
22.01.2005 21:00 0,7 C 67 % 1018 hPa 0,0 l/m W-SW -4,7 C -1,9 C 10,3 km/h (2 Bft)
22.01.2005 22:00 0,3 C 68 % 1018 hPa 0,0 l/m W-SW -4,8 C -1,1 C 6,9 km/h (2 Bft)
22.01.2005 23:00 -0,8 C 74 % 1018 hPa 0,0 l/m N-NO -4,8 C -1,1 C 1,7 km/h (1 Bft)
23.01.2005 00:00 -2,1 C 79 % 1017 hPa 0,0 l/m N -5,3 C -2,1 C 0,0 km/h (0 Bft)
23.01.2005 01:00 -2,8 C 82 % 1017 hPa 0,0 l/m N -5,5 C -2,8 C 0,0 km/h (0 Bft)
23.01.2005 02:00 -3,2 C 87 % 1017 hPa 0,0 l/m N -5,1 C -3,2 C 0,0 km/h (0 Bft)
23.01.2005 03:00 -3,6 C 87 % 1017 hPa 0,0 l/m N -5,4 C -3,6 C 0,0 km/h (0 Bft)
23.01.2005 04:00 -3,8 C 89 % 1016 hPa 0,0 l/m N -5,4 C -3,8 C 0,0 km/h (0 Bft)
23.01.2005 05:00 -4,0 C 90 % 1016 hPa 0,0 l/m N -5,3 C -4,0 C 0,0 km/h (0 Bft)
23.01.2005 06:00 -4,0 C 91 % 1015 hPa 0,0 l/m N -5,2 C -4,0 C 0,0 km/h (0 Bft)
23.01.2005 07:00 -3,6 C 92 % 1016 hPa 0,0 l/m N -4,7 C -3,6 C 0,0 km/h (0 Bft)
23.01.2005 08:00 -3,5 C 93 % 1016 hPa 0,0 l/m N -4,5 C -3,5 C 0,0 km/h (0 Bft)
23.01.2005 09:00 -3,1 C 93 % 1016 hPa 0,0 l/m N -4,0 C -3,1 C 0,0 km/h (0 Bft)
23.01.2005 10:00 -2,1 C 92 % 1017 hPa 0,0 l/m N -3,2 C -2,1 C 0,0 km/h (0 Bft)
23.01.2005 11:00 -0,6 C 84 % 1017 hPa 0,0 l/m N-NO -3,0 C -1,8 C 3,4 km/h (1 Bft)
23.01.2005 12:00 1,0 C 73 % 1017 hPa 0,0 l/m O -3,3 C -1,6 C 10,1 km/h (2 Bft)
23.01.2005 13:00 2,9 C 59 % 1017 hPa 0,0 l/m N -4,3 C -0,2 C 11,3 km/h (2 Bft)
23.01.2005 14:00 2,1 C 57 % 1016 hPa 0,0 l/m N -5,4 C -1,9 C 13,5 km/h (3 Bft)
23.01.2005 15:00 1,8 C 57 % 1016 hPa 0,0 l/m NW -5,8 C -0,7 C 9,5 km/h (2 Bft)
23.01.2005 16:00 1,2 C 56 % 1016 hPa 0,0 l/m N-NW -6,6 C -0,3 C 8,0 km/h (2 Bft)
23.01.2005 17:00 -0,2 C 63 % 1017 hPa 0,0 l/m NW -6,4 C -1,3 C 7,2 km/h (2 Bft)
23.01.2005 18:00 -1,2 C 68 % 1017 hPa 0,0 l/m W-NW -6,4 C -1,3 C 4,2 km/h (1 Bft)
23.01.2005 19:00 -1,8 C 72 % 1017 hPa 0,0 l/m W -6,1 C -1,8 C 0,8 km/h (0 Bft)
23.01.2005 20:00 -2,2 C 75 % 1016 hPa 0,0 l/m W -5,9 C -2,7 C 6,7 km/h (2 Bft)
23.01.2005 21:00 -2,3 C 75 % 1016 hPa 0,0 l/m W -6,2 C -3,8 C 8,1 km/h (2 Bft)
23.01.2005 22:00 -2,3 C 76 % 1016 hPa 0,0 l/m W-SW -6,1 C -3,8 C 8,6 km/h (2 Bft)
23.01.2005 23:00 -2,4 C 74 % 1015 hPa 0,0 l/m W-SW -6,3 C -4,3 C 8,7 km/h (2 Bft)
Min-Datum _ 17.01.05 22.01.05 22.01.05 - - 23.01.05 20.01.05 17.01.05
_ Min-Zeit 06:18 12:26 00:48 - - 16:40 09:14 00:00
Minimum _ -4,9 C 51 % 0 hPa - - -7,0 C -11,9 C 0,0 km/h (0 Bft)
Max-Datum _ 20.01.05 17.01.05 17.01.05 18.01.05 - 21.01.05 20.01.05 20.01.05
_ Max-Zeit 22:45 00:00 00:00 15:00 - 02:45 22:46 23:46
Maximum _ 7,2 C 100 % 1027 hPa 6,0 l/m - 5,5 C 7,2 C 77,1 km/h
S-SO (9 Bft)
Durchschnitt _ 0,5 C 84 % 1014 hPa #23,0 l/m S -2,1 C -3,5 C 12,9 km/h (3 Bft)

Durchschnitt Minimum Temp.0,1 C
Durchschnitt Maximum Temp.0,8 C